Time;durP1;ratioP1;P1;durP2;ratioP2;P2;SDS_P1;SDS_P2;PMS_P1;PMS_P2;Temp;Humidity;BMP_temperature;BMP_pressure;BME280_temperature;BME280_humidity;BME280_pressure;Samples;Min_cycle;Max_cycle;Signal;HPM_P1;HPM_P2
2022/03/01 00:01:12;;;;;;;14.00;8.85;;;6.40;82.80;;;;;;6073220;23;20338;-83
2022/03/01 00:03:38;;;;;;;15.18;8.95;;;6.40;82.30;;;;;;6097480;23;20089;-83
2022/03/01 00:06:04;;;;;;;15.13;8.63;;;6.40;82.10;;;;;;6098691;23;20426;-82
2022/03/01 00:08:30;;;;;;;15.35;8.90;;;6.30;81.90;;;;;;6097148;23;20021;-83
2022/03/01 00:10:56;;;;;;;17.30;9.10;;;6.30;80.20;;;;;;6097218;23;20045;-82
2022/03/01 00:13:21;;;;;;;15.65;9.18;;;6.30;80.40;;;;;;6121415;23;20081;-83
2022/03/01 00:15:47;;;;;;;13.27;8.02;;;6.20;80.80;;;;;;6097045;23;20437;-82
2022/03/01 00:18:13;;;;;;;13.90;8.93;;;6.20;81.30;;;;;;6073066;23;20026;-83
2022/03/01 00:20:39;;;;;;;15.25;8.75;;;6.10;81.40;;;;;;6072988;23;20002;-82
2022/03/01 00:23:05;;;;;;;17.48;8.98;;;6.10;81.60;;;;;;6121349;23;19999;-83
2022/03/01 00:25:31;;;;;;;14.40;9.00;;;6.20;82.00;;;;;;6096777;23;20430;-82
2022/03/01 00:27:57;;;;;;;15.02;9.05;;;6.10;81.80;;;;;;6072540;23;20014;-82
2022/03/01 00:30:23;;;;;;;13.80;8.68;;;6.10;81.80;;;;;;6072470;23;20017;-83
2022/03/01 00:32:49;;;;;;;16.83;8.80;;;6.00;81.70;;;;;;6121136;23;20010;-82
2022/03/01 00:35:15;;;;;;;16.48;8.98;;;6.00;81.10;;;;;;6072827;23;20426;-83
2022/03/01 00:37:40;;;;;;;15.35;8.98;;;5.90;80.80;;;;;;6096752;23;20013;-82
2022/03/01 00:40:07;;;;;;;16.02;10.07;;;5.90;81.60;;;;;;6097225;23;20006;-82
2022/03/01 00:42:32;;;;;;;17.25;8.52;;;5.90;82.20;;;;;;6072290;23;20003;-82
2022/03/01 00:44:58;;;;;;;20.52;10.48;;;5.90;82.80;;;;;;6121121;23;20319;-83
2022/03/01 00:47:24;;;;;;;13.63;8.50;;;5.90;82.90;;;;;;6120965;23;20047;-82
2022/03/01 00:49:50;;;;;;;14.20;9.23;;;5.90;83.80;;;;;;6072703;23;20074;-83
2022/03/01 00:52:15;;;;;;;17.55;10.20;;;5.80;84.30;;;;;;6096812;23;20014;-82
2022/03/01 00:54:41;;;;;;;15.40;9.75;;;5.80;84.70;;;;;;6072484;23;20010;-82
2022/03/01 00:57:07;;;;;;;16.10;9.32;;;5.80;84.90;;;;;;6120991;23;20415;-82
2022/03/01 00:59:32;;;;;;;15.88;8.77;;;5.80;84.40;;;;;;6096658;23;20097;-83
2022/03/01 01:01:58;;;;;;;14.80;9.93;;;5.80;84.20;;;;;;6072596;23;20097;-82
2022/03/01 01:04:24;;;;;;;16.52;9.98;;;5.80;84.10;;;;;;6120863;23;20003;-82
2022/03/01 01:06:49;;;;;;;16.45;9.00;;;5.70;83.90;;;;;;6072639;23;20018;-82
2022/03/01 01:09:15;;;;;;;14.75;9.27;;;5.70;84.20;;;;;;6120927;23;20010;-82
2022/03/01 01:11:42;;;;;;;15.55;9.52;;;5.70;84.10;;;;;;6096463;23;20013;-82
2022/03/01 01:14:08;;;;;;;15.27;9.43;;;5.70;84.40;;;;;;6096686;23;20331;-83
2022/03/01 01:16:33;;;;;;;16.15;9.43;;;5.60;84.30;;;;;;6096579;23;20014;-82
2022/03/01 01:18:59;;;;;;;18.00;11.50;;;5.60;83.60;;;;;;6072421;23;20011;-83
2022/03/01 01:22:39;;;;;;;14.95;9.52;;;5.50;83.60;;;;;;6096293;23;20013;-83
2022/03/01 01:24:11;;;;;;;16.73;9.63;;;5.50;83.60;;;;;;6096509;23;20073;-83
2022/03/01 01:26:36;;;;;;;13.68;8.40;;;5.50;83.80;;;;;;6072501;23;20073;-83
2022/03/01 01:29:02;;;;;;;17.20;9.18;;;5.50;83.90;;;;;;6097807;23;20310;-82
2022/03/01 01:31:28;;;;;;;15.60;9.60;;;5.40;83.80;;;;;;6072381;23;20037;-82
2022/03/01 01:33:53;;;;;;;18.05;9.73;;;5.40;83.80;;;;;;6096137;23;20011;-82
2022/03/01 01:36:19;;;;;;;20.08;10.90;;;5.30;84.10;;;;;;6071233;23;20011;-82
2022/03/01 01:38:44;;;;;;;15.52;9.85;;;5.30;84.60;;;;;;6096282;23;20003;-82
2022/03/01 01:41:10;;;;;;;16.33;10.27;;;5.30;84.80;;;;;;6071771;23;20015;-82
2022/03/01 01:43:36;;;;;;;16.13;9.82;;;5.30;85.20;;;;;;6072232;23;20489;-82
2022/03/01 01:46:01;;;;;;;16.85;10.20;;;5.30;85.90;;;;;;6096088;23;20018;-83
2022/03/01 01:48:27;;;;;;;16.10;10.27;;;5.30;85.70;;;;;;6072173;23;20037;-82
2022/03/01 01:50:53;;;;;;;14.63;9.63;;;5.20;86.40;;;;;;6096070;23;20014;-82
2022/03/01 01:53:19;;;;;;;15.88;9.68;;;5.30;87.50;;;;;;6071977;23;20007;-82
2022/03/01 01:55:45;;;;;;;16.80;9.65;;;5.30;88.30;;;;;;6072204;23;20011;-82
2022/03/01 01:58:10;;;;;;;16.83;9.98;;;5.30;88.80;;;;;;6095985;23;20045;-82
2022/03/01 02:00:36;;;;;;;14.05;9.75;;;5.30;89.00;;;;;;6072047;23;20009;-82
2022/03/01 02:03:02;;;;;;;18.00;10.50;;;5.20;89.70;;;;;;6072164;23;20007;-82
2022/03/01 02:05:29;;;;;;;15.25;10.02;;;5.30;90.10;;;;;;6095927;23;20039;-82
2022/03/01 02:07:55;;;;;;;17.48;10.52;;;5.20;90.20;;;;;;6095999;23;20037;-83
2022/03/01 02:10:21;;;;;;;16.23;10.43;;;5.20;90.30;;;;;;6095909;23;20011;-82
2022/03/01 02:12:47;;;;;;;17.95;10.32;;;5.20;90.70;;;;;;6095733;23;20007;-82
2022/03/01 02:15:14;;;;;;;16.85;9.32;;;5.20;90.40;;;;;;6095640;23;20063;-82
2022/03/01 02:17:40;;;;;;;20.33;10.48;;;5.20;90.40;;;;;;6096281;23;20011;-82
2022/03/01 02:20:12;;;;;;;17.38;10.60;;;5.20;90.60;;;;;;6095847;23;20006;-82
2022/03/01 02:22:38;;;;;;;16.83;10.40;;;5.20;90.60;;;;;;6095710;23;20081;-82
2022/03/01 02:25:04;;;;;;;17.08;10.50;;;5.20;90.80;;;;;;6095210;23;20465;-82
2022/03/01 02:27:30;;;;;;;17.20;10.45;;;5.10;90.90;;;;;;6071913;23;20037;-82
2022/03/01 02:29:56;;;;;;;18.92;10.98;;;5.10;91.10;;;;;;6095756;23;20422;-82
2022/03/01 02:32:21;;;;;;;16.00;10.15;;;5.00;91.20;;;;;;6095724;23;20010;-82
2022/03/01 02:34:48;;;;;;;19.90;11.27;;;5.10;91.50;;;;;;6095677;23;20015;-83
2022/03/01 02:37:14;;;;;;;20.25;11.05;;;5.00;91.70;;;;;;6095852;23;20034;-82
2022/03/01 02:39:40;;;;;;;15.73;10.15;;;5.00;91.90;;;;;;6096056;23;20322;-83
2022/03/01 02:42:06;;;;;;;14.38;9.68;;;5.00;92.10;;;;;;6095726;23;19999;-82
2022/03/01 02:44:31;;;;;;;16.95;10.75;;;5.00;92.20;;;;;;6095652;23;20122;-83
2022/03/01 02:46:57;;;;;;;17.27;10.82;;;5.00;92.30;;;;;;6071319;23;20046;-82
2022/03/01 02:49:23;;;;;;;16.25;10.38;;;5.00;92.80;;;;;;6095703;23;20037;-82
2022/03/01 02:51:49;;;;;;;17.58;10.20;;;4.90;92.60;;;;;;6095601;23;20007;-82
2022/03/01 02:54:14;;;;;;;20.27;10.60;;;4.90;92.80;;;;;;6095532;23;20018;-82
2022/03/01 02:56:40;;;;;;;17.77;10.35;;;4.90;93.10;;;;;;6095493;23;20462;-82
2022/03/01 02:59:07;;;;;;;17.35;10.38;;;4.80;93.20;;;;;;6095620;23;20002;-82
2022/03/01 03:01:33;;;;;;;20.23;10.73;;;4.80;93.30;;;;;;6095642;23;20019;-83
2022/03/01 03:03:59;;;;;;;18.75;10.88;;;4.80;93.60;;;;;;6095514;23;20094;-83
2022/03/01 03:06:25;;;;;;;16.98;10.05;;;4.80;93.80;;;;;;6096490;23;20446;-82
2022/03/01 03:08:51;;;;;;;20.58;11.73;;;4.70;93.90;;;;;;6073528;23;20049;-82
2022/03/01 03:11:16;;;;;;;17.77;10.55;;;4.70;94.30;;;;;;6097634;23;20069;-82
2022/03/01 03:13:43;;;;;;;17.75;10.90;;;4.70;94.50;;;;;;6097668;23;20002;-82
2022/03/01 03:16:10;;;;;;;20.42;11.50;;;4.70;95.00;;;;;;6097827;23;20449;-82
2022/03/01 03:18:36;;;;;;;19.15;11.15;;;4.70;95.20;;;;;;6097594;23;20010;-83
2022/03/01 03:21:02;;;;;;;19.50;10.85;;;4.70;95.50;;;;;;6097562;23;20009;-82
2022/03/01 03:23:28;;;;;;;19.02;11.55;;;4.60;95.50;;;;;;6097498;23;20002;-82
2022/03/01 03:25:54;;;;;;;17.55;10.98;;;4.60;95.70;;;;;;6097509;23;20018;-82
2022/03/01 03:28:20;;;;;;;20.00;11.15;;;4.60;95.90;;;;;;6073666;23;20500;-82
2022/03/01 03:30:46;;;;;;;18.27;10.70;;;4.60;96.20;;;;;;6097483;23;20011;-82
2022/03/01 03:33:11;;;;;;;17.70;11.13;;;4.60;96.60;;;;;;6073485;23;20018;-82
2022/03/01 03:35:37;;;;;;;18.45;11.73;;;4.60;96.60;;;;;;6097298;23;20014;-83
2022/03/01 03:38:03;;;;;;;16.13;10.45;;;4.60;96.70;;;;;;6097368;23;20066;-83
2022/03/01 03:40:29;;;;;;;16.02;9.93;;;4.60;96.90;;;;;;6097363;23;20081;-83
2022/03/01 03:42:54;;;;;;;21.58;11.23;;;4.60;97.00;;;;;;6121656;23;20007;-83
2022/03/01 03:45:20;;;;;;;15.70;10.15;;;4.50;97.20;;;;;;6097329;23;20092;-83
2022/03/01 03:47:45;;;;;;;18.33;10.70;;;4.60;97.30;;;;;;6097134;23;20438;-83
2022/03/01 03:50:12;;;;;;;18.33;10.57;;;4.50;97.40;;;;;;6097256;23;20048;-83
2022/03/01 03:52:39;;;;;;;16.60;10.57;;;4.50;97.60;;;;;;6097279;23;20095;-84
2022/03/01 03:55:06;;;;;;;17.25;10.75;;;4.50;97.60;;;;;;6097189;23;20006;-84
2022/03/01 03:57:33;;;;;;;18.20;11.35;;;4.50;97.70;;;;;;6097290;23;20053;-83
2022/03/01 03:59:59;;;;;;;18.25;11.25;;;4.50;98.10;;;;;;6097233;23;20485;-83
2022/03/01 04:02:25;;;;;;;18.55;10.48;;;4.50;98.60;;;;;;6097168;23;20426;-83
2022/03/01 04:04:50;;;;;;;18.15;10.73;;;4.50;99.00;;;;;;6097326;23;20090;-83
2022/03/01 04:07:16;;;;;;;18.27;11.32;;;4.50;99.10;;;;;;6097143;23;20164;-83
2022/03/01 04:09:41;;;;;;;18.13;10.43;;;4.50;99.40;;;;;;6073036;23;20010;-84
2022/03/01 04:12:07;;;;;;;20.75;11.48;;;4.40;99.60;;;;;;6073198;23;20394;-84
2022/03/01 04:14:34;;;;;;;18.50;11.07;;;4.40;99.70;;;;;;6097024;23;20062;-83
2022/03/01 04:17:00;;;;;;;21.92;11.82;;;4.40;99.90;;;;;;6072741;23;20097;-83
2022/03/01 04:19:26;;;;;;;18.83;11.40;;;4.50;99.90;;;;;;6121154;23;20011;-83
2022/03/01 04:21:52;;;;;;;19.95;11.10;;;4.40;99.90;;;;;;6096984;23;20030;-83
2022/03/01 04:24:18;;;;;;;17.08;10.95;;;4.40;99.90;;;;;;6096857;23;20489;-84
2022/03/01 04:26:43;;;;;;;19.70;11.13;;;4.40;99.90;;;;;;6097005;23;20065;-84
2022/03/01 04:29:09;;;;;;;16.95;10.52;;;4.40;99.90;;;;;;6096641;23;20422;-84
2022/03/01 04:31:35;;;;;;;17.50;10.88;;;4.40;99.90;;;;;;6096626;23;20034;-84
2022/03/01 04:34:01;;;;;;;18.02;11.43;;;4.40;99.90;;;;;;6097501;23;20085;-83
2022/03/01 04:36:27;;;;;;;18.33;11.15;;;4.40;99.90;;;;;;6096087;23;20038;-84
2022/03/01 04:38:53;;;;;;;19.45;10.68;;;4.40;99.90;;;;;;6121337;23;20002;-84
2022/03/01 04:41:19;;;;;;;17.65;11.18;;;4.40;99.90;;;;;;6096622;23;20061;-84
2022/03/01 04:43:45;;;;;;;18.08;11.18;;;4.40;99.90;;;;;;6072720;23;20006;-83
2022/03/01 04:46:11;;;;;;;18.08;11.05;;;4.30;99.90;;;;;;6120794;23;20018;-84
2022/03/01 04:48:37;;;;;;;20.60;11.25;;;4.30;99.90;;;;;;6096854;23;20441;-84
2022/03/01 04:51:04;;;;;;;19.20;12.10;;;4.30;99.90;;;;;;6096734;23;20418;-84
2022/03/01 04:53:30;;;;;;;17.60;10.82;;;4.30;99.90;;;;;;6072700;23;20097;-84
2022/03/01 04:55:56;;;;;;;19.23;11.57;;;4.20;99.90;;;;;;6072509;23;20010;-83
2022/03/01 04:58:22;;;;;;;19.75;10.90;;;4.20;99.90;;;;;;6096642;23;20006;-83
2022/03/01 05:00:48;;;;;;;18.08;10.98;;;4.20;99.90;;;;;;6121031;23;20003;-83
2022/03/01 05:03:14;;;;;;;19.08;11.57;;;4.20;99.90;;;;;;6096362;23;20473;-83
2022/03/01 05:05:39;;;;;;;19.35;11.35;;;4.20;99.90;;;;;;6096353;23;20045;-83
2022/03/01 05:08:05;;;;;;;18.40;11.20;;;4.20;99.90;;;;;;6096422;23;20006;-83
2022/03/01 05:10:31;;;;;;;20.33;11.82;;;4.20;99.90;;;;;;6096449;23;20017;-84
2022/03/01 05:12:59;;;;;;;18.67;12.13;;;4.20;99.90;;;;;;6072416;23;20073;-83
2022/03/01 05:15:26;;;;;;;23.80;13.88;;;4.20;99.90;;;;;;6096323;23;20006;-83
2022/03/01 05:17:53;;;;;;;21.45;11.07;;;4.20;99.90;;;;;;6120789;23;20006;-83
2022/03/01 05:20:20;;;;;;;19.40;11.18;;;4.20;99.90;;;;;;6072337;23;20422;-83
2022/03/01 05:22:47;;;;;;;19.20;11.63;;;4.20;99.90;;;;;;6096340;23;20030;-83
2022/03/01 05:25:15;;;;;;;24.77;11.40;;;4.20;99.90;;;;;;6096285;23;20374;-83
2022/03/01 05:27:43;;;;;;;18.52;10.80;;;4.20;99.90;;;;;;6096140;23;20069;-81
2022/03/01 05:30:11;;;;;;;16.42;10.48;;;4.20;99.90;;;;;;6096035;23;20007;-82
2022/03/01 05:32:39;;;;;;;18.45;11.32;;;4.20;99.90;;;;;;6096220;23;20009;-82
2022/03/01 05:35:09;;;;;;;17.75;9.77;;;4.20;99.90;;;;;;6096016;23;20089;-82
2022/03/01 05:37:36;;;;;;;17.98;10.88;;;4.20;99.90;;;;;;6073185;23;20030;-87
2022/03/01 05:40:02;;;;;;;19.83;10.45;;;4.20;99.90;;;;;;6096511;23;20381;-87
2022/03/01 05:42:27;;;;;;;17.83;10.57;;;4.20;99.90;;;;;;6096683;23;20038;-87
2022/03/01 05:44:55;;;;;;;16.80;10.68;;;4.20;99.90;;;;;;6072735;23;20007;-86
2022/03/01 05:47:21;;;;;;;18.20;10.68;;;4.20;99.90;;;;;;6096378;23;20026;-87
2022/03/01 05:49:47;;;;;;;16.35;10.25;;;4.10;99.90;;;;;;6096651;23;20311;-87
2022/03/01 05:52:13;;;;;;;16.75;10.45;;;4.10;99.90;;;;;;6096590;23;20085;-86
2022/03/01 05:54:39;;;;;;;16.98;10.30;;;4.10;99.90;;;;;;6096494;23;20008;-86
2022/03/01 05:57:04;;;;;;;18.90;10.32;;;4.20;99.90;;;;;;6096396;23;20500;-88
2022/03/01 05:59:30;;;;;;;16.80;10.63;;;4.10;99.90;;;;;;6096574;23;20010;-87
2022/03/01 06:01:56;;;;;;;17.52;10.93;;;4.10;99.90;;;;;;6096355;23;20003;-87
2022/03/01 06:04:21;;;;;;;17.50;9.70;;;4.10;99.90;;;;;;6096526;23;20006;-87
2022/03/01 06:06:47;;;;;;;22.38;11.65;;;4.10;99.90;;;;;;6096807;23;20037;-87
2022/03/01 06:09:13;;;;;;;19.35;10.90;;;4.10;99.90;;;;;;6072227;23;20457;-87
2022/03/01 06:11:38;;;;;;;19.38;10.73;;;4.10;99.90;;;;;;6072490;23;20453;-88
2022/03/01 06:14:05;;;;;;;18.75;10.65;;;4.10;99.90;;;;;;6096580;23;20052;-89
2022/03/01 06:16:31;;;;;;;19.92;10.88;;;4.10;99.70;;;;;;6096581;23;20014;-88
2022/03/01 06:18:57;;;;;;;18.70;10.43;;;4.10;99.70;;;;;;6096997;23;20537;-88
2022/03/01 06:21:24;;;;;;;23.77;12.60;;;4.10;99.80;;;;;;6072751;23;20064;-87
2022/03/01 06:23:50;;;;;;;19.85;11.15;;;4.10;99.50;;;;;;6097200;23;20393;-88
2022/03/01 06:26:15;;;;;;;17.38;11.25;;;4.10;99.50;;;;;;6096704;23;20320;-88
2022/03/01 06:28:41;;;;;;;16.00;10.65;;;4.10;99.40;;;;;;6096905;23;20038;-88
2022/03/01 06:31:07;;;;;;;19.73;10.68;;;4.10;99.40;;;;;;6096380;23;20397;-88
2022/03/01 06:33:32;;;;;;;18.88;10.68;;;4.10;99.50;;;;;;6096245;23;20011;-88
2022/03/01 06:35:58;;;;;;;16.77;10.13;;;4.10;99.50;;;;;;6070649;23;20010;-88
2022/03/01 06:38:25;;;;;;;18.00;10.90;;;4.10;99.50;;;;;;6095356;23;20422;-88
2022/03/01 06:40:56;;;;;;;23.92;12.07;;;4.10;99.40;;;;;;6095259;23;20002;-88
2022/03/01 06:43:23;;;;;;;23.20;11.32;;;4.10;99.40;;;;;;6096082;23;20003;-88
2022/03/01 06:45:49;;;;;;;18.13;10.80;;;4.10;99.50;;;;;;6095875;23;20006;-88
2022/03/01 06:48:15;;;;;;;18.63;11.40;;;4.10;99.50;;;;;;6095906;23;20022;-88
2022/03/01 06:50:41;;;;;;;21.45;12.10;;;4.10;99.60;;;;;;6096418;23;20346;-88
2022/03/01 06:53:06;;;;;;;18.58;11.30;;;4.20;99.80;;;;;;6097546;23;20003;-88
2022/03/01 06:55:32;;;;;;;17.92;10.77;;;4.20;99.90;;;;;;6096183;23;20378;-88
2022/03/01 06:57:58;;;;;;;19.90;12.80;;;4.20;99.90;;;;;;6097590;23;20006;-87
2022/03/01 07:00:24;;;;;;;17.38;11.32;;;4.20;99.90;;;;;;6097066;23;20334;-88
2022/03/01 07:02:50;;;;;;;21.88;11.98;;;4.20;99.90;;;;;;6097004;23;20058;-88
2022/03/01 07:05:17;;;;;;;21.27;11.65;;;4.10;99.90;;;;;;6121146;23;20073;-88
2022/03/01 07:07:43;;;;;;;20.85;11.38;;;4.20;99.90;;;;;;6120766;23;20430;-88
2022/03/01 07:10:14;;;;;;;20.65;11.00;;;4.20;99.90;;;;;;6096390;23;20030;-88
2022/03/01 07:15:42;;;;;;;20.70;11.10;;;4.20;99.90;;;;;;6096557;23;19959;-88
2022/03/01 07:18:08;;;;;;;23.02;12.98;;;4.20;99.90;;;;;;6119270;23;20081;-88
2022/03/01 07:20:37;;;;;;;20.25;11.02;;;4.20;99.90;;;;;;6096634;23;20002;-88
2022/03/01 07:23:05;;;;;;;19.63;10.93;;;4.20;99.90;;;;;;6096737;23;20006;-88
2022/03/01 07:25:31;;;;;;;17.63;10.85;;;4.20;99.90;;;;;;6096329;23;20045;-88
2022/03/01 07:27:56;;;;;;;21.58;10.98;;;4.20;99.90;;;;;;6097066;23;20006;-88
2022/03/01 07:30:25;;;;;;;20.20;10.80;;;4.20;99.90;;;;;;6070475;23;20100;-88
2022/03/01 07:32:52;;;;;;;21.20;12.07;;;4.20;99.90;;;;;;6095849;23;20006;-88
2022/03/01 07:35:19;;;;;;;17.52;11.18;;;4.30;99.90;;;;;;6095341;23;20065;-89
2022/03/01 07:37:46;;;;;;;21.45;11.77;;;4.30;99.90;;;;;;6096274;23;20035;-88
2022/03/01 07:40:13;;;;;;;25.55;11.73;;;4.40;99.90;;;;;;6095886;23;20006;-88
2022/03/01 07:42:39;;;;;;;26.38;11.40;;;4.30;99.90;;;;;;6095919;23;20003;-87
2022/03/01 07:45:06;;;;;;;20.52;10.88;;;4.40;99.90;;;;;;6095996;23;20002;-88
2022/03/01 07:47:31;;;;;;;19.13;11.18;;;4.40;99.90;;;;;;6095655;23;20014;-88
2022/03/01 07:49:58;;;;;;;18.40;10.73;;;4.50;99.90;;;;;;6095986;23;20496;-88
2022/03/01 07:52:24;;;;;;;22.02;11.23;;;4.50;99.90;;;;;;6096747;23;20042;-89
2022/03/01 07:54:49;;;;;;;22.80;12.65;;;4.50;99.90;;;;;;6097887;23;20002;-87
2022/03/01 07:57:16;;;;;;;18.40;11.50;;;4.60;99.90;;;;;;6097909;23;20054;-87
2022/03/01 07:59:42;;;;;;;22.00;12.32;;;4.60;99.90;;;;;;6097844;23;20006;-87
2022/03/01 08:02:08;;;;;;;18.85;11.20;;;4.60;99.90;;;;;;6098062;23;20077;-87
2022/03/01 08:04:34;;;;;;;18.30;11.35;;;4.60;99.90;;;;;;6097564;23;20040;-87
2022/03/01 08:07:00;;;;;;;18.85;11.32;;;4.60;99.90;;;;;;6097763;23;20072;-88
2022/03/01 08:09:26;;;;;;;18.98;10.85;;;4.70;99.90;;;;;;6097600;23;20011;-87
2022/03/01 08:11:51;;;;;;;20.65;11.02;;;4.60;99.90;;;;;;6073782;23;20011;-87
2022/03/01 08:14:17;;;;;;;19.20;10.27;;;4.70;99.90;;;;;;6097597;23;20040;-87
2022/03/01 08:16:43;;;;;;;18.45;10.38;;;4.70;99.90;;;;;;6097413;23;20013;-87
2022/03/01 08:19:08;;;;;;;25.38;10.70;;;4.70;99.90;;;;;;6097458;23;20377;-87
2022/03/01 08:21:34;;;;;;;15.82;9.30;;;4.70;99.70;;;;;;6097372;23;20334;-87
2022/03/01 08:24:00;;;;;;;19.58;10.90;;;4.70;99.80;;;;;;6099121;23;20335;-87
2022/03/01 08:26:26;;;;;;;15.40;9.70;;;4.70;99.80;;;;;;6073271;23;20007;-88
2022/03/01 08:28:52;;;;;;;19.73;10.73;;;4.70;99.50;;;;;;6121716;23;20013;-88
2022/03/01 08:31:18;;;;;;;15.32;9.75;;;4.70;99.50;;;;;;6073622;23;20030;-88
2022/03/01 08:33:44;;;;;;;25.10;10.48;;;4.70;99.60;;;;;;6097791;23;20330;-87
2022/03/01 08:36:12;;;;;;;15.30;10.32;;;4.80;99.70;;;;;;6097338;23;20434;-88
2022/03/01 08:38:38;;;;;;;19.85;9.43;;;4.80;99.50;;;;;;6097400;23;20041;-87
2022/03/01 08:41:04;;;;;;;17.48;9.93;;;4.80;99.50;;;;;;6122242;23;19999;-87
2022/03/01 08:43:30;;;;;;;24.48;10.57;;;4.80;99.40;;;;;;6073634;23;20037;-88
2022/03/01 08:45:55;;;;;;;25.33;10.93;;;4.80;99.90;;;;;;6073448;23;20065;-88
2022/03/01 08:48:21;;;;;;;18.90;9.85;;;4.90;99.60;;;;;;6097188;23;20019;-87
2022/03/01 08:50:46;;;;;;;14.07;9.32;;;4.90;99.60;;;;;;6097299;23;20010;-87
2022/03/01 08:53:13;;;;;;;23.10;11.57;;;5.00;99.80;;;;;;6097210;23;20102;-88
2022/03/01 08:55:39;;;;;;;18.17;9.88;;;5.00;99.70;;;;;;6096960;23;20010;-87
2022/03/01 08:58:05;;;;;;;18.08;10.10;;;5.10;99.90;;;;;;6073463;23;20006;-88
2022/03/01 09:00:32;;;;;;;14.73;9.32;;;5.10;99.80;;;;;;6096536;23;20085;-86
2022/03/01 09:02:58;;;;;;;17.02;10.02;;;5.20;99.80;;;;;;6121356;23;20009;-87
2022/03/01 09:05:24;;;;;;;16.38;10.05;;;5.20;99.60;;;;;;6072843;23;20021;-88
2022/03/01 09:07:50;;;;;;;15.07;9.00;;;5.20;99.70;;;;;;6097047;23;20342;-83
2022/03/01 09:10:21;;;;;;;16.45;9.75;;;5.20;99.80;;;;;;6096558;23;20045;-83
2022/03/01 09:12:50;;;;;;;17.17;10.50;;;5.30;99.70;;;;;;6096387;23;20010;-83
2022/03/01 09:15:17;;;;;;;16.27;9.02;;;5.30;99.40;;;;;;6096319;23;20430;-83
2022/03/01 09:17:43;;;;;;;22.48;10.32;;;5.30;99.60;;;;;;6072819;23;20437;-83
2022/03/01 09:20:09;;;;;;;18.73;9.52;;;5.40;99.10;;;;;;6098032;23;20330;-82
2022/03/01 09:22:35;;;;;;;19.30;10.15;;;5.40;99.20;;;;;;6098057;23;20060;-82
2022/03/01 09:25:04;;;;;;;17.75;10.13;;;5.40;99.50;;;;;;6121170;23;20030;-88
2022/03/01 09:27:30;;;;;;;21.38;10.10;;;5.50;99.30;;;;;;6074066;23;20057;-88
2022/03/01 09:29:56;;;;;;;20.90;10.55;;;5.60;99.40;;;;;;6074183;23;20002;-88
2022/03/01 09:32:21;;;;;;;17.08;9.70;;;5.60;99.60;;;;;;6097302;23;20013;-88
2022/03/01 09:34:47;;;;;;;15.13;9.27;;;5.70;99.40;;;;;;6097117;23;20018;-87
2022/03/01 09:37:13;;;;;;;17.92;9.95;;;5.70;99.30;;;;;;6121221;23;20002;-88
2022/03/01 09:39:39;;;;;;;14.07;9.27;;;5.80;99.40;;;;;;6073080;23;20003;-88
2022/03/01 09:42:07;;;;;;;16.75;10.00;;;5.80;99.20;;;;;;6120952;23;20026;-89
2022/03/01 09:44:33;;;;;;;15.60;9.82;;;5.90;99.00;;;;;;6096752;23;19998;-87
2022/03/01 09:46:59;;;;;;;14.20;9.30;;;5.90;99.10;;;;;;6096180;23;20010;-88
2022/03/01 09:49:24;;;;;;;16.45;9.63;;;5.90;98.80;;;;;;6121112;23;20018;-87
2022/03/01 09:51:50;;;;;;;15.70;8.82;;;6.00;98.20;;;;;;6072445;23;20460;-87
2022/03/01 09:54:16;;;;;;;16.23;9.55;;;6.00;98.00;;;;;;6072462;23;20034;-87
2022/03/01 09:56:42;;;;;;;16.08;10.27;;;6.00;97.90;;;;;;6072347;23;20010;-87
2022/03/01 09:59:08;;;;;;;16.60;9.68;;;6.00;98.00;;;;;;6097726;23;20057;-83
2022/03/01 10:01:34;;;;;;;17.15;9.63;;;6.10;98.20;;;;;;6119670;23;20108;-84
2022/03/01 10:04:10;;;;;;;14.15;9.82;;;6.20;98.30;;;;;;6105519;23;20112;-83
2022/03/01 10:06:42;;;;;;;17.08;9.32;;;6.20;98.30;;;;;;6155977;23;20006;-84
2022/03/01 10:09:23;;;;;;;16.30;9.23;;;6.30;98.20;;;;;;6156293;23;20052;-84
2022/03/01 10:11:49;;;;;;;15.88;9.40;;;6.30;98.10;;;;;;6156450;23;20001;-84
2022/03/01 10:14:26;;;;;;;14.70;9.57;;;6.40;98.10;;;;;;6130431;23;20020;-83
2022/03/01 10:16:52;;;;;;;16.63;9.68;;;6.50;98.10;;;;;;6133254;23;20065;-83
2022/03/01 10:19:20;;;;;;;14.98;9.88;;;6.60;98.20;;;;;;6105689;23;20060;-83
2022/03/01 10:22:06;;;;;;;15.57;9.20;;;6.70;97.50;;;;;;6130157;23;19998;-84
2022/03/01 10:24:32;;;;;;;17.70;10.00;;;6.80;98.30;;;;;;6154334;23;20071;-85
2022/03/01 10:27:02;;;;;;;17.75;10.20;;;6.90;98.10;;;;;;6081739;23;20012;-85
2022/03/01 10:29:29;;;;;;;15.25;9.68;;;7.00;96.70;;;;;;6130138;23;20394;-85
2022/03/01 10:31:59;;;;;;;15.48;9.35;;;7.10;97.00;;;;;;6156235;23;20390;-84
2022/03/01 10:34:26;;;;;;;13.52;8.98;;;7.30;97.20;;;;;;6106350;23;20076;-84
2022/03/01 10:36:52;;;;;;;16.85;10.25;;;7.30;96.20;;;;;;6129863;23;20006;-84
2022/03/01 10:39:29;;;;;;;13.82;9.23;;;7.40;95.60;;;;;;6105910;23;20333;-84
2022/03/01 10:41:55;;;;;;;17.73;8.93;;;7.50;95.30;;;;;;6130451;23;20005;-85
2022/03/01 10:44:23;;;;;;;20.80;10.02;;;7.50;95.40;;;;;;6105186;23;20088;-85
2022/03/01 10:47:05;;;;;;;19.63;10.68;;;7.60;95.10;;;;;;6156165;23;20302;-85
2022/03/01 10:49:35;;;;;;;14.05;9.02;;;7.60;95.10;;;;;;6129550;23;20041;-85
2022/03/01 10:52:07;;;;;;;14.38;9.48;;;7.70;94.90;;;;;;6128542;23;20016;-84
2022/03/01 10:54:33;;;;;;;;;;;7.70;94.90;;;;;;6129335;23;20089;-85
2022/03/01 10:57:04;;;;;;;15.82;8.82;;;7.80;94.80;;;;;;6129801;23;19932;-84
2022/03/01 10:59:32;;;;;;;14.70;8.88;;;7.80;94.20;;;;;;6130525;23;20049;-84
2022/03/01 11:01:58;;;;;;;16.45;9.30;;;7.90;94.20;;;;;;6129591;23;20064;-85
2022/03/01 11:04:25;;;;;;;18.20;9.10;;;7.90;94.20;;;;;;6129391;23;20056;-85
2022/03/01 11:07:01;;;;;;;21.75;9.38;;;8.00;94.30;;;;;;6130218;23;20094;-85
2022/03/01 11:09:29;;;;;;;18.85;9.65;;;8.10;94.40;;;;;;6155849;23;20341;-84
2022/03/01 11:11:56;;;;;;;14.98;9.48;;;8.10;94.10;;;;;;6105515;23;20010;-84
2022/03/01 11:14:31;;;;;;;15.05;9.45;;;8.20;93.80;;;;;;6105694;23;20073;-84
2022/03/01 11:17:19;;;;;;;15.15;9.55;;;8.30;93.70;;;;;;6129348;23;20008;-84
2022/03/01 11:19:56;;;;;;;14.18;9.55;;;8.30;93.40;;;;;;6129524;23;20005;-83
2022/03/01 11:22:59;;;;;;;15.75;9.15;;;8.40;93.90;;;;;;6132227;23;20417;-89
2022/03/01 11:25:30;;;;;;;18.38;10.32;;;8.50;94.10;;;;;;6081598;23;20010;-89
2022/03/01 11:28:01;;;;;;;14.50;10.27;;;8.50;94.30;;;;;;6106759;23;20017;-88
2022/03/01 11:30:32;;;;;;;15.15;9.43;;;8.60;94.60;;;;;;6132078;23;20432;-89
2022/03/01 11:32:58;;;;;;;15.93;9.52;;;8.60;94.30;;;;;;6132533;23;20052;-89
2022/03/01 11:35:27;;;;;;;16.15;9.68;;;8.70;93.20;;;;;;6108105;23;20013;-88
2022/03/01 11:38:06;;;;;;;16.55;9.73;;;8.70;93.60;;;;;;6132055;23;20001;-89
2022/03/01 11:40:38;;;;;;;14.10;9.68;;;8.80;94.00;;;;;;6132208;23;20012;-89
2022/03/01 11:43:14;;;;;;;16.13;10.25;;;8.90;94.20;;;;;;6132487;23;20017;-89
2022/03/01 11:45:48;;;;;;;16.85;10.30;;;8.90;93.80;;;;;;6131969;23;20010;-89
2022/03/01 11:48:21;;;;;;;16.00;9.70;;;9.00;93.70;;;;;;6132604;23;20033;-90
2022/03/01 11:50:49;;;;;;;14.88;10.38;;;9.00;93.80;;;;;;6132789;23;20010;-89
2022/03/01 11:53:19;;;;;;;16.60;9.75;;;9.10;92.70;;;;;;6132635;23;20084;-89
2022/03/01 11:56:05;;;;;;;15.00;10.23;;;9.10;92.40;;;;;;6107955;23;20341;-89
2022/03/01 11:58:37;;;;;;;15.52;10.32;;;9.10;92.70;;;;;;6132467;23;20005;-89
2022/03/01 12:01:07;;;;;;;15.15;9.77;;;9.20;92.70;;;;;;6158186;23;20009;-90
2022/03/01 12:03:38;;;;;;;15.25;10.10;;;9.20;92.70;;;;;;6132518;23;20028;-89
2022/03/01 12:06:07;;;;;;;16.48;10.40;;;9.20;92.90;;;;;;6108125;23;20016;-89
2022/03/01 12:08:38;;;;;;;17.95;10.60;;;9.30;92.50;;;;;;6108066;23;20021;-89
2022/03/01 12:11:09;;;;;;;27.43;11.27;;;9.40;92.90;;;;;;6132161;23;20006;-89
2022/03/01 12:13:37;;;;;;;;;;;9.40;92.90;;;;;;6132664;23;20016;-89
2022/03/01 12:16:04;;;;;;;19.88;10.38;;;9.40;91.40;;;;;;6131964;23;20229;-89
2022/03/01 12:18:33;;;;;;;24.02;11.10;;;9.40;92.00;;;;;;6107619;23;20008;-89
2022/03/01 12:21:07;;;;;;;17.35;10.80;;;9.50;91.40;;;;;;6132545;23;20029;-84
2022/03/01 12:23:35;;;;;;;17.88;10.60;;;9.60;91.80;;;;;;6131234;23;20390;-84
2022/03/01 12:26:03;;;;;;;18.08;10.52;;;9.60;92.40;;;;;;6157233;23;20534;-84
2022/03/01 12:28:37;;;;;;;21.55;10.90;;;9.70;91.70;;;;;;6131025;23;20080;-84
2022/03/01 12:31:11;;;;;;;16.27;10.40;;;9.70;90.50;;;;;;6131247;23;20373;-84
2022/03/01 12:33:46;;;;;;;21.90;11.35;;;9.70;91.00;;;;;;6131323;23;20310;-84
2022/03/01 12:36:11;;;;;;;18.98;11.20;;;9.80;90.90;;;;;;6131052;23;20085;-84
2022/03/01 12:38:39;;;;;;;16.00;10.57;;;9.80;89.50;;;;;;6082079;23;20346;-84
2022/03/01 12:41:09;;;;;;;17.73;10.60;;;9.90;87.90;;;;;;6083485;23;20059;-85
2022/03/01 12:43:35;;;;;;;16.85;10.23;;;9.90;87.30;;;;;;6157225;23;20001;-85